Time;durP1;ratioP1;P1;durP2;ratioP2;P2;SDS_P1;SDS_P2;PMS_P1;PMS_P2;Temp;Humidity;BMP_temperature;BMP_pressure;BME280_temperature;BME280_humidity;BME280_pressure;Samples;Min_cycle;Max_cycle;Signal;HPM_P1;HPM_P2
2022/12/21 00:02:41;;;;;;;29.35;11.10;;;;;;;;;;10569655;28;20064;-79
2022/12/21 00:07:56;;;;;;;25.67;8.93;;;;;;;;;;10563443;28;20028;-79
2022/12/21 00:13:04;;;;;;;22.90;8.88;;;;;;;;;;10534483;28;20038;-79
2022/12/21 00:18:07;;;;;;;21.13;9.63;;;;;;;;;;10496556;28;20040;-79
2022/12/21 00:23:12;;;;;;;26.58;9.93;;;;;;;;;;10519012;28;20068;-79
2022/12/21 00:28:15;;;;;;;24.15;9.18;;;;;;;;;;10502441;28;20133;-79
2022/12/21 00:33:19;;;;;;;17.07;7.93;;;;;;;;;;10510728;28;20036;-80
2022/12/21 00:38:24;;;;;;;14.45;6.63;;;;;;;;;;10509130;28;20036;-80
2022/12/21 00:43:28;;;;;;;12.18;6.10;;;;;;;;;;10509246;28;20143;-79
2022/12/21 00:48:32;;;;;;;7.57;3.57;;;;;;;;;;10489802;28;20071;-79
2022/12/21 00:53:37;;;;;;;6.93;3.30;;;;;;;;;;10471824;28;20306;-80
2022/12/21 00:58:41;;;;;;;7.82;3.40;;;;;;;;;;10509424;28;20058;-80
2022/12/21 01:03:44;;;;;;;8.88;3.65;;;;;;;;;;10498595;28;20050;-79
2022/12/21 01:08:51;;;;;;;6.80;3.22;;;;;;;;;;10522733;28;20035;-79
2022/12/21 01:13:54;;;;;;;9.27;3.90;;;;;;;;;;10496378;28;20043;-78
2022/12/21 01:19:00;;;;;;;6.50;3.08;;;;;;;;;;10519521;28;20044;-79
2022/12/21 01:24:07;;;;;;;7.40;3.70;;;;;;;;;;10514525;28;20459;-79
2022/12/21 01:29:12;;;;;;;5.88;2.75;;;;;;;;;;10514462;28;20480;-78
2022/12/21 01:34:15;;;;;;;8.45;2.40;;;;;;;;;;10500100;28;20051;-78
2022/12/21 01:39:23;;;;;;;8.00;3.10;;;;;;;;;;10509930;28;20036;-79
2022/12/21 01:45:02;;;;;;;6.18;3.00;;;;;;;;;;10519225;28;20064;-78
2022/12/21 01:50:14;;;;;;;8.52;3.03;;;;;;;;;;10425350;28;20040;-78
2022/12/21 01:55:21;;;;;;;6.25;3.03;;;;;;;;;;10482194;28;20510;-79
2022/12/21 02:00:24;;;;;;;7.45;2.78;;;;;;;;;;10512717;28;20382;-79
2022/12/21 02:05:29;;;;;;;6.45;2.95;;;;;;;;;;10529083;28;20043;-79
2022/12/21 02:10:50;;;;;;;5.82;2.78;;;;;;;;;;10528268;28;20527;-79
2022/12/21 02:16:23;;;;;;;6.32;2.92;;;;;;;;;;10519612;28;20233;-78
2022/12/21 02:21:29;;;;;;;3.27;1.87;;;;;;;;;;10374915;28;20060;-78
2022/12/21 02:26:42;;;;;;;5.35;2.50;;;;;;;;;;10482926;28;20048;-78
2022/12/21 02:31:53;;;;;;;3.83;1.90;;;;;;;;;;10510817;28;20111;-79
2022/12/21 02:36:58;;;;;;;2.05;1.42;;;;;;;;;;10510811;28;20066;-78
2022/12/21 02:42:02;;;;;;;4.45;1.70;;;;;;;;;;10496059;28;20040;-78
2022/12/21 02:47:10;;;;;;;3.15;1.38;;;;;;;;;;10500444;28;20140;-79
2022/12/21 02:52:15;;;;;;;5.10;2.47;;;;;;;;;;10486568;28;20039;-78
2022/12/21 02:57:19;;;;;;;1.02;0.90;;;;;;;;;;10514469;28;20043;-78
2022/12/21 03:02:40;;;;;;;4.45;2.00;;;;;;;;;;10514079;28;20043;-78
2022/12/21 03:07:50;;;;;;;2.80;1.27;;;;;;;;;;10496795;28;20607;-78
2022/12/21 03:13:03;;;;;;;3.65;2.00;;;;;;;;;;10506556;28;20036;-79
2022/12/21 03:18:10;;;;;;;5.95;2.20;;;;;;;;;;10487340;28;20088;-80
2022/12/21 03:23:17;;;;;;;4.63;2.22;;;;;;;;;;10493096;28;20359;-80
2022/12/21 03:28:23;;;;;;;3.67;1.80;;;;;;;;;;10513782;28;20040;-80
2022/12/21 03:33:28;;;;;;;5.60;2.90;;;;;;;;;;10496479;28;20038;-79
2022/12/21 03:38:35;;;;;;;5.20;2.63;;;;;;;;;;10506236;28;20045;-78
2022/12/21 03:43:38;;;;;;;6.25;2.40;;;;;;;;;;10509699;28;20063;-78
2022/12/21 03:48:43;;;;;;;3.90;2.08;;;;;;;;;;10513986;28;20067;-79
2022/12/21 03:54:01;;;;;;;5.35;2.38;;;;;;;;;;10489732;28;20135;-79
2022/12/21 03:59:06;;;;;;;6.57;2.50;;;;;;;;;;10508761;28;20520;-79
2022/12/21 04:04:12;;;;;;;7.00;2.60;;;;;;;;;;10513152;28;20040;-79
2022/12/21 04:09:15;;;;;;;4.32;2.63;;;;;;;;;;10492932;28;20040;-78
2022/12/21 04:14:21;;;;;;;6.78;2.10;;;;;;;;;;10494741;28;20044;-79
2022/12/21 04:30:09;;;;;;;5.45;2.22;;;;;;;;;;10491294;28;20130;-78
2022/12/21 04:35:12;;;;;;;6.75;2.70;;;;;;;;;;10515333;28;20060;-78
2022/12/21 04:40:15;;;;;;;5.30;2.42;;;;;;;;;;10519357;28;20047;-79
2022/12/21 04:45:20;;;;;;;5.43;2.60;;;;;;;;;;10505486;28;20135;-79
2022/12/21 04:50:23;;;;;;;4.03;2.13;;;;;;;;;;10528306;28;20075;-78
2022/12/21 04:55:27;;;;;;;5.10;2.63;;;;;;;;;;10517809;28;20032;-80
2022/12/21 05:00:31;;;;;;;5.72;2.80;;;;;;;;;;10510639;28;20052;-80
2022/12/21 05:05:34;;;;;;;5.13;2.60;;;;;;;;;;10572748;28;20038;-80
2022/12/21 05:10:37;;;;;;;4.43;2.15;;;;;;;;;;10588941;28;20028;-80
2022/12/21 05:15:41;;;;;;;3.75;2.28;;;;;;;;;;10559004;28;20036;-80
2022/12/21 05:20:44;;;;;;;5.60;2.67;;;;;;;;;;10571730;28;20043;-80
2022/12/21 05:25:55;;;;;;;3.97;2.42;;;;;;;;;;10530506;28;20366;-79
2022/12/21 05:30:59;;;;;;;5.57;2.60;;;;;;;;;;10524937;28;20036;-78
2022/12/21 05:36:03;;;;;;;6.65;2.97;;;;;;;;;;10503745;28;20032;-79
2022/12/21 05:41:08;;;;;;;5.80;2.78;;;;;;;;;;10507080;28;20036;-79
2022/12/21 05:46:27;;;;;;;5.07;2.60;;;;;;;;;;10510304;28;20032;-80
2022/12/21 05:51:32;;;;;;;5.75;3.03;;;;;;;;;;10526012;28;20047;-80
2022/12/21 05:57:09;;;;;;;5.18;3.05;;;;;;;;;;10598124;27;20926;-79
2022/12/21 06:02:11;;;;;;;6.65;2.83;;;;;;;;;;10590810;28;20047;-79
2022/12/21 06:07:14;;;;;;;4.82;2.90;;;;;;;;;;10594316;28;20131;-78
2022/12/21 06:12:18;;;;;;;5.18;2.88;;;;;;;;;;10595422;28;20039;-80
2022/12/21 06:17:21;;;;;;;3.10;1.52;;;;;;;;;;10592899;27;20047;-78
2022/12/21 06:22:24;;;;;;;7.45;3.30;;;;;;;;;;10595678;27;20416;-79
2022/12/21 06:27:28;;;;;;;27.95;9.98;;;;;;;;;;10594274;28;20036;-80
2022/12/21 06:32:31;;;;;;;;;;;;;;;;;;10591780;27;20671;-78
2022/12/21 06:37:33;;;;;;;49.25;14.00;;;;;;;;;;10591574;28;19919;-79
2022/12/21 06:42:37;;;;;;;6.07;2.92;;;;;;;;;;10605798;28;20179;-78
2022/12/21 06:47:40;;;;;;;6.45;1.90;;;;;;;;;;10604827;28;20042;-79
2022/12/21 06:52:43;;;;;;;11.60;2.83;;;;;;;;;;10596436;27;20059;-79
2022/12/21 06:57:47;;;;;;;7.10;2.05;;;;;;;;;;10599908;27;20036;-79
2022/12/21 07:02:49;;;;;;;7.75;2.05;;;;;;;;;;10598700;28;20398;-79
2022/12/21 07:07:53;;;;;;;3.97;2.20;;;;;;;;;;10567472;28;20933;-80
2022/12/21 07:12:57;;;;;;;5.07;2.70;;;;;;;;;;10554641;28;20050;-80
2022/12/21 07:18:02;;;;;;;6.35;2.90;;;;;;;;;;10561371;28;20257;-80
2022/12/21 07:23:04;;;;;;;5.47;2.78;;;;;;;;;;10558837;28;20071;-80
2022/12/21 07:28:08;;;;;;;2.63;1.58;;;;;;;;;;10551453;28;20055;-80
2022/12/21 07:33:11;;;;;;;5.95;2.70;;;;;;;;;;10568775;28;20035;-80
2022/12/21 07:38:14;;;;;;;5.15;1.70;;;;;;;;;;10560424;28;20044;-79
2022/12/21 07:43:19;;;;;;;7.72;2.40;;;;;;;;;;10570002;28;20123;-79
2022/12/21 07:48:22;;;;;;;3.25;1.98;;;;;;;;;;10558600;28;20040;-79
2022/12/21 07:53:33;;;;;;;6.95;2.90;;;;;;;;;;10569807;28;20074;-79
2022/12/21 07:58:37;;;;;;;3.08;1.80;;;;;;;;;;10560313;28;20484;-78
2022/12/21 08:03:41;;;;;;;4.47;1.92;;;;;;;;;;10563739;28;20036;-79
2022/12/21 08:08:44;;;;;;;2.88;2.00;;;;;;;;;;10556371;28;20210;-79
2022/12/21 08:13:48;;;;;;;5.70;2.60;;;;;;;;;;10559567;28;20374;-79
2022/12/21 08:18:51;;;;;;;;;;;;;;;;;;10557144;28;20493;-79
2022/12/21 08:23:54;;;;;;;5.50;2.72;;;;;;;;;;10553542;28;19927;-80
2022/12/21 08:28:58;;;;;;;5.82;2.80;;;;;;;;;;10560515;28;20042;-80
2022/12/21 08:34:03;;;;;;;2.35;1.33;;;;;;;;;;10555502;28;20497;-79
2022/12/21 08:39:07;;;;;;;6.85;2.80;;;;;;;;;;10561966;28;20046;-77
2022/12/21 08:44:13;;;;;;;5.22;2.22;;;;;;;;;;10559131;28;20511;-79
2022/12/21 08:49:16;;;;;;;6.47;2.72;;;;;;;;;;10564295;28;20501;-77
2022/12/21 08:54:18;;;;;;;4.35;1.35;;;;;;;;;;10559052;28;20036;-78
2022/12/21 08:59:22;;;;;;;12.50;4.28;;;;;;;;;;10563599;28;20032;-78
2022/12/21 09:04:25;;;;;;;;;;;;;;;;;;10556386;28;20113;-79
2022/12/21 09:09:27;;;;;;;2.80;1.55;;;;;;;;;;10547692;28;19927;-80
2022/12/21 09:14:31;;;;;;;10.95;4.07;;;;;;;;;;10561541;28;20266;-79
2022/12/21 09:19:34;;;;;;;6.68;3.25;;;;;;;;;;10561133;28;20040;-81
2022/12/21 09:24:41;;;;;;;7.18;2.95;;;;;;;;;;10558041;28;20125;-81
2022/12/21 09:29:45;;;;;;;7.03;3.22;;;;;;;;;;10556593;28;20508;-80
2022/12/21 09:34:48;;;;;;;7.53;3.17;;;;;;;;;;10555753;28;20036;-80
2022/12/21 09:39:51;;;;;;;7.50;3.28;;;;;;;;;;10562762;28;20044;-81
2022/12/21 09:45:01;;;;;;;7.32;3.35;;;;;;;;;;10561239;28;20554;-79
2022/12/21 09:50:05;;;;;;;4.90;2.38;;;;;;;;;;10556322;28;20402;-80
2022/12/21 09:55:14;;;;;;;11.02;2.97;;;;;;;;;;10564584;28;20035;-80
2022/12/21 10:00:19;;;;;;;3.70;1.83;;;;;;;;;;10551260;28;20368;-80
2022/12/21 10:05:32;;;;;;;3.75;2.17;;;;;;;;;;10562315;28;20028;-81
2022/12/21 10:10:37;;;;;;;5.40;2.17;;;;;;;;;;10560346;28;20044;-80
2022/12/21 10:15:45;;;;;;;3.00;1.70;;;;;;;;;;10558662;28;20126;-80
2022/12/21 10:20:53;;;;;;;4.15;2.28;;;;;;;;;;10558916;28;20099;-80
2022/12/21 10:25:57;;;;;;;5.15;2.65;;;;;;;;;;10563372;28;20043;-80
2022/12/21 10:31:04;;;;;;;7.80;2.92;;;;;;;;;;10553145;28;20067;-80
2022/12/21 10:36:07;;;;;;;4.15;2.22;;;;;;;;;;10556910;28;20278;-81
2022/12/21 10:41:13;;;;;;;8.20;2.20;;;;;;;;;;10561148;28;20036;-81
2022/12/21 10:46:19;;;;;;;3.00;1.67;;;;;;;;;;10566348;28;20717;-80
2022/12/21 10:51:27;;;;;;;5.88;2.63;;;;;;;;;;10578153;27;20120;-81
2022/12/21 10:56:31;;;;;;;4.40;2.50;;;;;;;;;;10570342;28;20045;-79
2022/12/21 11:01:35;;;;;;;11.75;3.03;;;;;;;;;;10563516;28;20047;-80
2022/12/21 11:06:38;;;;;;;7.50;2.50;;;;;;;;;;10564777;28;20044;-80
2022/12/21 11:11:41;;;;;;;2.50;1.30;;;;;;;;;;10567915;28;20409;-80
2022/12/21 11:16:45;;;;;;;3.15;1.92;;;;;;;;;;10570226;28;20040;-80
2022/12/21 11:21:49;;;;;;;3.58;1.88;;;;;;;;;;10561161;28;20074;-81
2022/12/21 11:26:54;;;;;;;28.25;6.82;;;;;;;;;;10567691;28;20106;-80
2022/12/21 11:32:03;;;;;;;6.68;3.00;;;;;;;;;;10568335;28;20040;-79
2022/12/21 11:37:07;;;;;;;17.00;3.65;;;;;;;;;;10562930;28;20342;-80
2022/12/21 11:42:18;;;;;;;49.60;10.80;;;;;;;;;;10566361;28;20035;-79
2022/12/21 11:47:34;;;;;;;31.83;13.00;;;;;;;;;;10562925;28;20067;-80
2022/12/21 11:52:43;;;;;;;57.10;15.45;;;;;;;;;;10561947;28;20124;-79
2022/12/21 11:57:50;;;;;;;34.55;10.27;;;;;;;;;;10561129;28;20024;-80
2022/12/21 12:03:10;;;;;;;11.13;3.50;;;;;;;;;;10564635;28;20078;-79
2022/12/21 12:14:04;;;;;;;10.93;3.67;;;;;;;;;;10562505;28;20035;-80
2022/12/21 12:19:34;;;;;;;61.17;15.23;;;;;;;;;;10531374;28;20040;-79
2022/12/21 12:30:23;;;;;;;9.98;3.50;;;;;;;;;;10512034;27;20137;-80
2022/12/21 12:35:37;;;;;;;6.45;2.58;;;;;;;;;;10512171;28;20580;-80
2022/12/21 12:40:43;;;;;;;4.37;2.27;;;;;;;;;;10513184;28;20075;-80
2022/12/21 12:45:54;;;;;;;7.93;2.92;;;;;;;;;;10514376;28;20298;-78
2022/12/21 12:51:01;;;;;;;4.57;2.60;;;;;;;;;;10503489;28;20041;-80
2022/12/21 12:56:09;;;;;;;5.40;2.20;;;;;;;;;;10512569;28;20401;-80
2022/12/21 13:01:15;;;;;;;3.72;1.38;;;;;;;;;;10509404;28;20048;-79
2022/12/21 13:06:25;;;;;;;5.53;2.53;;;;;;;;;;10513997;28;20506;-80
2022/12/21 13:11:33;;;;;;;4.82;2.08;;;;;;;;;;10505443;28;20056;-80
2022/12/21 13:16:41;;;;;;;6.60;1.92;;;;;;;;;;10512980;28;20509;-80
2022/12/21 13:21:49;;;;;;;5.70;1.88;;;;;;;;;;10500937;28;20052;-80
2022/12/21 13:26:54;;;;;;;6.00;2.33;;;;;;;;;;10510351;28;20039;-79
2022/12/21 13:32:01;;;;;;;3.63;1.67;;;;;;;;;;10509982;28;20047;-79
2022/12/21 13:37:07;;;;;;;3.03;1.80;;;;;;;;;;10506865;28;20494;-79
2022/12/21 13:42:22;;;;;;;3.00;1.90;;;;;;;;;;10476498;28;20047;-79
2022/12/21 13:47:27;;;;;;;1.73;1.00;;;;;;;;;;10476022;28;20111;-79
2022/12/21 13:52:33;;;;;;;2.42;1.70;;;;;;;;;;10483389;28;20067;-80
2022/12/21 13:57:53;;;;;;;5.60;1.70;;;;;;;;;;10483527;28;20409;-79
2022/12/21 14:03:01;;;;;;;7.22;2.42;;;;;;;;;;10483930;28;20048;-79
2022/12/21 14:08:17;;;;;;;5.32;2.15;;;;;;;;;;10480038;28;20036;-80
2022/12/21 14:13:40;;;;;;;3.85;2.08;;;;;;;;;;10470874;28;20066;-80
2022/12/21 14:18:45;;;;;;;4.38;1.75;;;;;;;;;;10474015;28;20052;-80
2022/12/21 14:23:49;;;;;;;4.45;2.00;;;;;;;;;;10479165;28;20047;-81
2022/12/21 14:28:52;;;;;;;8.52;2.10;;;;;;;;;;10479894;28;20100;-79
2022/12/21 14:33:58;;;;;;;4.68;2.30;;;;;;;;;;10480120;28;20041;-79
2022/12/21 14:39:35;;;;;;;4.75;1.85;;;;;;;;;;10475482;28;20043;-80
2022/12/21 14:44:53;;;;;;;5.88;1.80;;;;;;;;;;10479347;28;20040;-79
2022/12/21 14:50:02;;;;;;;10.07;2.15;;;;;;;;;;10473487;28;20132;-79
2022/12/21 14:55:06;;;;;;;3.83;1.90;;;;;;;;;;10475873;28;20043;-79
2022/12/21 15:00:29;;;;;;;3.45;1.88;;;;;;;;;;10475031;28;20500;-79
2022/12/21 15:05:47;;;;;;;5.82;1.95;;;;;;;;;;10467821;28;20586;-79
2022/12/21 15:10:55;;;;;;;7.32;2.35;;;;;;;;;;10472161;28;20071;-80
2022/12/21 15:16:06;;;;;;;4.78;1.90;;;;;;;;;;10476501;28;20039;-80
2022/12/21 15:21:27;;;;;;;4.97;2.10;;;;;;;;;;10473839;28;20040;-79
2022/12/21 15:26:31;;;;;;;5.03;2.17;;;;;;;;;;10475994;28;20040;-79
2022/12/21 15:31:43;;;;;;;3.47;1.70;;;;;;;;;;10474793;28;20037;-80
2022/12/21 15:36:51;;;;;;;4.85;1.90;;;;;;;;;;10478257;28;20116;-79
2022/12/21 15:41:57;;;;;;;2.08;1.00;;;;;;;;;;10475900;28;20076;-79
2022/12/21 15:47:05;;;;;;;3.70;1.50;;;;;;;;;;10473411;28;20064;-79
2022/12/21 15:52:23;;;;;;;2.10;0.82;;;;;;;;;;10473552;28;20044;-78
2022/12/21 15:57:28;;;;;;;4.57;1.90;;;;;;;;;;10478015;28;20067;-80
2022/12/21 16:02:32;;;;;;;2.50;1.45;;;;;;;;;;10467378;28;20056;-79
2022/12/21 16:07:35;;;;;;;2.15;1.15;;;;;;;;;;10470096;28;20032;-79
2022/12/21 16:12:42;;;;;;;5.60;1.60;;;;;;;;;;10468511;28;20115;-79
2022/12/21 16:18:19;;;;;;;2.38;1.35;;;;;;;;;;10462907;28;20044;-80
2022/12/21 16:23:23;;;;;;;5.18;1.90;;;;;;;;;;10434631;28;20077;-80
2022/12/21 16:28:29;;;;;;;3.78;1.77;;;;;;;;;;10474324;28;20039;-79
2022/12/21 16:33:35;;;;;;;3.20;1.60;;;;;;;;;;10466407;28;20051;-80
2022/12/21 16:38:38;;;;;;;4.40;1.90;;;;;;;;;;10467950;28;20036;-81
2022/12/21 16:43:45;;;;;;;2.23;1.33;;;;;;;;;;10469698;28;20136;-79
2022/12/21 16:48:50;;;;;;;1.90;0.80;;;;;;;;;;10478793;28;20101;-79
2022/12/21 16:53:54;;;;;;;4.25;1.70;;;;;;;;;;10473598;28;20053;-79
2022/12/21 16:59:00;;;;;;;2.07;1.30;;;;;;;;;;10477552;28;20041;-79
2022/12/21 17:04:06;;;;;;;1.85;1.30;;;;;;;;;;10470664;28;20036;-80
2022/12/21 17:09:12;;;;;;;2.45;1.30;;;;;;;;;;10463968;28;20045;-81
2022/12/21 17:14:17;;;;;;;3.05;1.73;;;;;;;;;;10468596;28;20044;-80
2022/12/21 17:19:21;;;;;;;4.13;1.40;;;;;;;;;;10471815;28;20039;-79
2022/12/21 17:24:26;;;;;;;3.00;1.73;;;;;;;;;;10480709;28;20075;-80
2022/12/21 17:29:35;;;;;;;5.75;1.77;;;;;;;;;;10476803;28;20397;-80
2022/12/21 17:34:38;;;;;;;0.52;0.35;;;;;;;;;;10483203;28;20040;-80
2022/12/21 17:39:51;;;;;;;4.63;1.90;;;;;;;;;;10484129;28;20051;-80
2022/12/21 17:44:55;;;;;;;4.43;1.92;;;;;;;;;;10479384;28;20113;-80
2022/12/21 17:49:58;;;;;;;;;;;;;;;;;;10486201;28;20037;-79
2022/12/21 17:55:02;;;;;;;7.38;2.50;;;;;;;;;;10481380;28;20433;-79
2022/12/21 18:00:05;;;;;;;;;;;;;;;;;;10479344;28;20102;-79
2022/12/21 18:05:13;;;;;;;5.75;2.60;;;;;;;;;;10476857;28;19923;-79
2022/12/21 18:10:18;;;;;;;9.60;3.83;;;;;;;;;;10477509;28;20033;-80
2022/12/21 18:15:21;;;;;;;2.10;1.35;;;;;;;;;;10472255;28;20059;-80
2022/12/21 18:20:27;;;;;;;5.38;2.45;;;;;;;;;;10478286;28;20258;-80
2022/12/21 18:25:30;;;;;;;5.57;2.20;;;;;;;;;;10481386;28;20309;-79
2022/12/21 18:30:32;;;;;;;8.23;3.80;;;;;;;;;;10461588;28;20052;-80
2022/12/21 18:35:37;;;;;;;11.63;4.53;;;;;;;;;;10468299;28;20423;-80
2022/12/21 18:40:40;;;;;;;3.05;1.92;;;;;;;;;;10472447;28;20418;-79
2022/12/21 18:45:43;;;;;;;5.97;2.40;;;;;;;;;;10472841;28;20040;-80
2022/12/21 18:50:58;;;;;;;4.57;2.15;;;;;;;;;;10473875;28;20040;-78
2022/12/21 18:56:02;;;;;;;8.48;2.78;;;;;;;;;;10482833;28;20049;-79
2022/12/21 19:01:06;;;;;;;6.03;2.05;;;;;;;;;;10471503;28;20037;-79
2022/12/21 19:06:12;;;;;;;2.78;2.38;;;;;;;;;;10474488;28;20063;-79
2022/12/21 19:11:16;;;;;;;6.65;2.78;;;;;;;;;;10472791;28;20064;-78
2022/12/21 19:16:22;;;;;;;6.03;3.13;;;;;;;;;;10465552;28;20410;-79
2022/12/21 19:21:28;;;;;;;7.85;3.70;;;;;;;;;;10471242;28;20037;-79
2022/12/21 19:26:33;;;;;;;6.50;2.80;;;;;;;;;;10474899;28;20040;-78
2022/12/21 19:31:36;;;;;;;;;;;;;;;;;;10476337;28;20072;-80
2022/12/21 19:36:47;;;;;;;9.00;3.90;;;;;;;;;;10474291;28;19936;-79
2022/12/21 19:41:50;;;;;;;1.95;1.23;;;;;;;;;;10484085;28;20064;-81
2022/12/21 19:46:54;;;;;;;4.65;1.65;;;;;;;;;;10480882;28;20044;-78
2022/12/21 19:52:03;;;;;;;4.18;2.85;;;;;;;;;;10480063;28;20150;-79
2022/12/21 19:57:09;;;;;;;7.88;2.25;;;;;;;;;;10473922;28;20054;-79
2022/12/21 20:02:19;;;;;;;2.08;1.15;;;;;;;;;;10499004;28;20040;-79
2022/12/21 20:07:25;;;;;;;5.63;2.80;;;;;;;;;;10467205;28;20148;-79
2022/12/21 20:12:29;;;;;;;6.35;2.55;;;;;;;;;;10472347;28;20159;-80
2022/12/21 20:17:33;;;;;;;6.13;2.40;;;;;;;;;;10478372;28;20048;-79
2022/12/21 20:22:40;;;;;;;4.30;2.30;;;;;;;;;;10464550;28;20477;-79
2022/12/21 20:27:45;;;;;;;5.45;2.03;;;;;;;;;;10486546;28;20037;-79
2022/12/21 20:32:53;;;;;;;2.45;1.40;;;;;;;;;;10477454;28;20565;-80
2022/12/21 20:38:00;;;;;;;3.92;2.00;;;;;;;;;;10478510;28;20051;-79
2022/12/21 20:48:24;;;;;;;12.07;3.80;;;;;;;;;;10478839;28;20575;-80
2022/12/21 20:53:28;;;;;;;4.50;2.50;;;;;;;;;;10475175;28;20110;-79
2022/12/21 20:58:31;;;;;;;1.55;1.20;;;;;;;;;;10484393;28;20580;-79
2022/12/21 21:03:34;;;;;;;2.38;1.77;;;;;;;;;;10471201;28;20049;-78
2022/12/21 21:08:38;;;;;;;5.85;2.30;;;;;;;;;;10478748;28;20482;-79
2022/12/21 21:13:41;;;;;;;3.08;1.90;;;;;;;;;;10477433;28;20043;-79
2022/12/21 21:18:44;;;;;;;3.33;1.70;;;;;;;;;;10478283;28;20042;-79
2022/12/21 21:23:48;;;;;;;4.95;2.38;;;;;;;;;;10471607;28;20047;-79
2022/12/21 21:28:51;;;;;;;4.43;2.28;;;;;;;;;;10481672;28;20044;-78
2022/12/21 21:33:54;;;;;;;6.90;3.53;;;;;;;;;;10482788;28;20119;-79
2022/12/21 21:44:22;;;;;;;6.85;2.83;;;;;;;;;;10482717;28;20454;-79
2022/12/21 21:49:26;;;;;;;2.05;1.60;;;;;;;;;;10477644;28;20040;-79
2022/12/21 21:54:29;;;;;;;;;;;;;;;;;;10466924;28;20426;-78
2022/12/21 21:59:34;;;;;;;2.15;0.88;;;;;;;;;;10469717;28;19954;-78
2022/12/21 22:04:37;;;;;;;5.07;2.72;;;;;;;;;;10471122;28;20120;-78
2022/12/21 22:09:40;;;;;;;7.68;3.80;;;;;;;;;;10477603;28;20135;-77
2022/12/21 22:15:11;;;;;;;7.88;3.17;;;;;;;;;;10467336;28;20147;-78
2022/12/21 22:47:00;;;;;;;6.68;3.10;;;;;;;;;;10463656;28;20041;-79
2022/12/21 22:52:02;;;;;;;3.92;1.73;;;;;;;;;;10457198;28;20063;-78
2022/12/21 22:57:05;;;;;;;4.90;1.83;;;;;;;;;;10474325;28;20052;-77
2022/12/21 23:02:13;;;;;;;5.82;1.95;;;;;;;;;;10467949;28;20474;-79
2022/12/21 23:07:16;;;;;;;5.55;2.88;;;;;;;;;;10473328;28;20116;-78
2022/12/21 23:28:33;;;;;;;6.18;3.65;;;;;;;;;;10469262;28;20582;-79
2022/12/21 23:44:19;;;;;;;5.68;1.98;;;;;;;;;;10468144;28;20114;-78
